createdAt,value
2023-09-25T00:04:26.195Z,100151.94
2023-09-25T00:09:28.189Z,100150.94
2023-09-25T00:14:30.192Z,100155.63
2023-09-25T00:19:32.298Z,100157.19
2023-09-25T00:24:34.073Z,100166.19
2023-09-25T00:29:36.200Z,100177.38
2023-09-25T00:34:38.042Z,100178.50
2023-09-25T00:39:40.098Z,100190.16
2023-09-25T00:44:42.052Z,100190.28
2023-09-25T00:49:44.097Z,100190.28
2023-09-25T00:54:45.996Z,100195.63
2023-09-25T00:59:48.033Z,100185.72
2023-09-25T01:04:50.226Z,100180.50
2023-09-25T01:10:11.290Z,100186.13
2023-09-25T01:15:13.367Z,100191.44
2023-09-25T01:20:16.040Z,100207.25
2023-09-25T01:25:18.890Z,100204.59
2023-09-25T01:30:21.627Z,100224.28
2023-09-25T01:35:23.865Z,100221.03
2023-09-25T01:40:25.622Z,100224.84
2023-09-25T01:45:27.548Z,100230.81
2023-09-25T01:50:29.862Z,100228.34
2023-09-25T01:55:32.717Z,100243.44
2023-09-25T02:00:34.699Z,100251.78
2023-09-25T02:05:36.878Z,100257.78
2023-09-25T02:10:38.723Z,100271.25
2023-09-25T02:15:40.821Z,100274.16
2023-09-25T02:20:42.738Z,100273.03
2023-09-25T02:25:44.694Z,100283.13
2023-09-25T02:30:46.852Z,100291.28
2023-09-25T02:35:48.559Z,100305.16
2023-09-25T02:40:50.571Z,100312.75
2023-09-25T02:45:52.812Z,100310.91
2023-09-25T02:50:54.796Z,100320.16
2023-09-25T02:55:56.890Z,100331.81
2023-09-25T03:00:59.642Z,100344.97
2023-09-25T03:06:01.861Z,100340.47
2023-09-25T03:11:03.918Z,100346.41
2023-09-25T03:16:13.829Z,100350.88
2023-09-25T03:21:16.078Z,100343.94
2023-09-25T03:26:18.308Z,100358.59
2023-09-25T03:31:20.336Z,100371.53
2023-09-25T03:36:22.241Z,100382.25
2023-09-25T03:41:24.194Z,100385.50
2023-09-25T03:46:26.243Z,100397.84
2023-09-25T03:51:28.299Z,100402.81
2023-09-25T03:56:30.573Z,100409.41
2023-09-25T04:01:32.828Z,100411.16
2023-09-25T04:06:35.056Z,100411.50
2023-09-25T04:11:38.028Z,100410.97
2023-09-25T04:16:40.196Z,100417.84
2023-09-25T04:21:42.519Z,100424.69
2023-09-25T04:26:44.422Z,100427.97
2023-09-25T04:31:46.886Z,100433.69
2023-09-25T04:36:51.011Z,100443.28
2023-09-25T04:41:52.949Z,100438.97
2023-09-25T04:46:54.915Z,100437.00
2023-09-25T04:51:56.893Z,100438.59
2023-09-25T04:56:58.909Z,100455.69
2023-09-25T05:02:02.088Z,100455.41
2023-09-25T05:07:04.136Z,100468.69
2023-09-25T05:12:06.813Z,100464.16
2023-09-25T05:17:08.472Z,100478.59
2023-09-25T05:22:10.425Z,100478.66
2023-09-25T05:27:12.523Z,100472.13
2023-09-25T05:32:14.510Z,100472.63
2023-09-25T05:37:16.472Z,100479.84
2023-09-25T05:42:18.422Z,100477.13
2023-09-25T05:47:20.479Z,100482.50
2023-09-25T05:52:22.451Z,100491.34
2023-09-25T05:57:24.452Z,100503.03
2023-09-25T06:02:31.578Z,100495.28
2023-09-25T06:07:36.738Z,100502.19
2023-09-25T06:12:38.599Z,100493.06
2023-09-25T06:17:41.262Z,100507.56
2023-09-25T06:22:44.014Z,100503.16
2023-09-25T06:27:46.140Z,100515.78
2023-09-25T06:32:48.247Z,100516.19
2023-09-25T06:37:50.085Z,100524.56
2023-09-25T06:42:52.095Z,100527.63
2023-09-25T06:47:53.854Z,100525.22
2023-09-25T06:52:55.779Z,100543.69
2023-09-25T06:57:57.564Z,100547.81
2023-09-25T07:02:59.509Z,100542.88
2023-09-25T07:08:01.539Z,100560.47
2023-09-25T07:13:03.446Z,100565.53
2023-09-25T07:18:05.788Z,100563.50
2023-09-25T07:23:07.733Z,100569.63
2023-09-25T07:28:09.774Z,100575.47
2023-09-25T07:33:11.589Z,100582.56
2023-09-25T07:38:13.511Z,100576.19
2023-09-25T07:43:16.274Z,100582.00
2023-09-25T07:48:18.472Z,100572.13
2023-09-25T07:53:20.473Z,100570.00
2023-09-25T07:58:22.453Z,100582.94
2023-09-25T08:03:24.263Z,100585.53
2023-09-25T08:08:26.225Z,100597.91
2023-09-25T08:13:28.239Z,100613.22
2023-09-25T08:18:29.994Z,100610.63
2023-09-25T08:23:31.965Z,100619.38
2023-09-25T08:28:34.424Z,100629.94
2023-09-25T08:33:36.366Z,100633.88
2023-09-25T08:38:38.051Z,100638.47
2023-09-25T08:43:40.020Z,100641.28
2023-09-25T08:48:41.834Z,100650.44
2023-09-25T08:53:43.873Z,100658.03
2023-09-25T08:58:45.849Z,100658.22
2023-09-25T09:03:47.957Z,100659.13
2023-09-25T09:08:52.064Z,100661.25
2023-09-25T09:13:54.033Z,100665.84
2023-09-25T09:19:08.771Z,100675.63
2023-09-25T09:24:21.505Z,100679.56
2023-09-25T09:29:23.677Z,100685.81
2023-09-25T09:34:25.602Z,100689.22
2023-09-25T09:39:27.801Z,100686.75
2023-09-25T09:44:29.757Z,100693.91
2023-09-25T09:49:32.765Z,100689.72
2023-09-25T09:54:39.302Z,100691.09
2023-09-25T09:59:41.341Z,100690.09
2023-09-25T10:04:43.471Z,100707.53
2023-09-25T10:10:04.910Z,100695.53
2023-09-25T10:15:09.017Z,100702.72
2023-09-25T10:20:36.121Z,100718.06
2023-09-25T10:25:57.698Z,100711.28
2023-09-25T10:31:00.622Z,100721.19
2023-09-25T10:36:03.521Z,100712.56
2023-09-25T10:41:08.736Z,100715.66
2023-09-25T10:46:10.949Z,100703.91
2023-09-25T10:51:13.014Z,100700.13
2023-09-25T10:56:15.119Z,100714.69
2023-09-25T11:01:19.096Z,100720.75
2023-09-25T11:06:21.037Z,100724.03
2023-09-25T11:11:24.282Z,100726.31
2023-09-25T11:16:26.624Z,100717.75
2023-09-25T11:21:31.587Z,100708.34
2023-09-25T11:26:36.683Z,100713.72
2023-09-25T11:31:50.150Z,100700.44
2023-09-25T11:37:01.222Z,100700.72
2023-09-25T11:42:03.636Z,100699.94
2023-09-25T11:47:08.718Z,100719.25
2023-09-25T11:52:12.209Z,100715.53
2023-09-25T11:57:14.090Z,100711.84
2023-09-25T12:02:15.892Z,100710.56
2023-09-25T12:07:17.777Z,100714.03
2023-09-25T12:12:19.493Z,100721.63
2023-09-25T12:17:21.533Z,100715.75
2023-09-25T12:22:23.543Z,100720.72
2023-09-25T12:27:25.254Z,100734.31
2023-09-25T12:32:27.258Z,100726.19
2023-09-25T12:37:29.046Z,100729.81
2023-09-25T12:42:42.841Z,100743.13
2023-09-25T12:47:49.721Z,100739.59
2023-09-25T12:52:51.546Z,100740.66
2023-09-25T12:57:53.905Z,100737.59
2023-09-25T13:02:56.169Z,100743.34
2023-09-25T13:07:58.231Z,100738.41
2023-09-25T13:13:00.294Z,100748.63
2023-09-25T13:18:02.487Z,100745.22
2023-09-25T13:23:04.828Z,100743.84
2023-09-25T13:28:06.945Z,100747.84
2023-09-25T13:33:09.198Z,100753.34
2023-09-25T13:38:11.502Z,100751.69
2023-09-25T13:43:13.558Z,100745.88
2023-09-25T13:48:15.357Z,100747.59
2023-09-25T13:53:17.334Z,100758.78
2023-09-25T13:58:19.226Z,100759.34
2023-09-25T14:03:21.898Z,100765.34
2023-09-25T14:08:24.165Z,100764.44
2023-09-25T14:13:26.433Z,100769.19
2023-09-25T14:18:28.401Z,100768.38
2023-09-25T14:23:30.276Z,100774.69
2023-09-25T14:28:32.272Z,100777.47
2023-09-25T14:33:34.949Z,100778.31
2023-09-25T14:38:37.126Z,100780.91
2023-09-25T14:43:38.924Z,100782.78
2023-09-25T14:48:41.012Z,100784.00
2023-09-25T14:53:42.941Z,100784.00
2023-09-25T14:58:45.105Z,100788.63
2023-09-25T15:03:47.305Z,100787.06
2023-09-25T15:08:49.567Z,100782.88
2023-09-25T15:13:52.056Z,100787.88
2023-09-25T15:18:54.119Z,100800.75
2023-09-25T15:23:56.171Z,100801.13
2023-09-25T15:28:58.263Z,100808.50
2023-09-25T15:34:00.589Z,100811.59
2023-09-25T15:39:02.988Z,100813.66
2023-09-25T15:44:05.280Z,100824.59
2023-09-25T15:49:07.420Z,100831.22
2023-09-25T15:54:09.606Z,100827.88
2023-09-25T15:59:11.615Z,100840.66
2023-09-25T16:04:13.796Z,100842.47
2023-09-25T16:09:15.826Z,100835.00
2023-09-25T16:14:18.618Z,100842.16
2023-09-25T16:19:20.659Z,100848.50
2023-09-25T16:24:22.730Z,100849.63
2023-09-25T16:29:24.743Z,100860.50
2023-09-25T16:34:26.850Z,100858.84
2023-09-25T16:39:32.057Z,100866.13
2023-09-25T16:44:36.278Z,100856.69
2023-09-25T16:49:38.250Z,100866.59
2023-09-25T16:54:40.390Z,100867.69
2023-09-25T16:59:43.140Z,100867.84
2023-09-25T17:04:45.293Z,100870.63
2023-09-25T17:09:47.608Z,100869.81
2023-09-25T17:14:49.774Z,100876.91
2023-09-25T17:19:51.813Z,100884.13
2023-09-25T17:24:53.936Z,100884.13
2023-09-25T17:29:56.034Z,100884.31
2023-09-25T17:34:58.014Z,100881.59
2023-09-25T17:40:00.189Z,100883.41
2023-09-25T17:45:02.052Z,100895.13
2023-09-25T17:50:04.325Z,100898.59
2023-09-25T17:55:06.587Z,100882.78
2023-09-25T18:00:08.924Z,100894.09
2023-09-25T18:05:35.870Z,100896.66
2023-09-25T18:23:00.004Z,100904.84
2023-09-25T18:28:16.131Z,100920.75
2023-09-25T18:33:47.500Z,100918.16
2023-09-25T18:44:22.502Z,100922.75
2023-09-25T18:49:24.490Z,100935.41
2023-09-25T18:54:42.484Z,100944.59
2023-09-25T18:59:51.346Z,100942.25
2023-09-25T19:04:54.429Z,100938.13
2023-09-25T19:09:56.938Z,100933.75
2023-09-25T19:14:59.183Z,100936.41
2023-09-25T19:20:01.081Z,100933.84
2023-09-25T19:25:04.215Z,100933.16
2023-09-25T19:30:06.765Z,100938.44
2023-09-25T19:35:09.192Z,100942.81
2023-09-25T19:40:11.791Z,100949.00
2023-09-25T19:45:13.807Z,100957.03
2023-09-25T19:50:15.810Z,100953.53
2023-09-25T19:55:17.805Z,100964.25
2023-09-25T20:00:19.868Z,100956.44
2023-09-25T20:05:21.879Z,100960.97
2023-09-25T20:10:23.907Z,100956.53
2023-09-25T20:15:25.973Z,100967.94
2023-09-25T20:20:28.008Z,100963.50
2023-09-25T20:25:29.971Z,100971.47
2023-09-25T20:30:31.865Z,100968.09
2023-09-25T20:35:35.005Z,100973.44
2023-09-25T20:40:36.896Z,100978.84
2023-09-25T20:45:38.969Z,100985.22
2023-09-25T20:50:41.734Z,100974.78
2023-09-25T20:55:43.707Z,100972.13
2023-09-25T21:00:45.706Z,100972.13
2023-09-25T21:05:47.726Z,100970.41
2023-09-25T21:10:49.680Z,100967.69
2023-09-25T21:15:51.715Z,100974.66
2023-09-25T21:20:53.705Z,100975.63
2023-09-25T21:25:58.793Z,100973.91
2023-09-25T21:31:00.843Z,100985.38
2023-09-25T21:36:02.970Z,100979.28
2023-09-25T21:41:05.068Z,100989.91
2023-09-25T21:46:07.696Z,100979.41
2023-09-25T21:51:09.955Z,100985.63
2023-09-25T21:56:11.834Z,100989.38
2023-09-25T22:01:13.858Z,100992.06
2023-09-25T22:06:16.032Z,100988.56
2023-09-25T22:11:17.962Z,100989.44
2023-09-25T22:16:19.987Z,100992.97
2023-09-25T22:21:22.065Z,100993.91
2023-09-25T22:26:23.988Z,100998.34
2023-09-25T22:31:26.146Z,101007.22
2023-09-25T22:36:28.208Z,101000.22
2023-09-25T22:41:30.224Z,101001.13
2023-09-25T22:46:32.279Z,101003.81
2023-09-25T22:51:34.287Z,101009.13
2023-09-25T22:56:36.290Z,101013.59
2023-09-25T23:01:38.376Z,101017.19
2023-09-25T23:06:40.600Z,101018.09
2023-09-25T23:11:42.622Z,101016.38
2023-09-25T23:16:44.681Z,101013.75
2023-09-25T23:21:46.804Z,101009.38
2023-09-25T23:26:48.773Z,101006.78
2023-09-25T23:31:50.725Z,101009.47
2023-09-25T23:36:52.688Z,101024.50
2023-09-25T23:41:56.840Z,101028.91
2023-09-25T23:46:58.841Z,101023.66
2023-09-25T23:52:00.911Z,101033.41
2023-09-25T23:57:03.152Z,101030.84
